createdAt,value
2023-03-18T00:01:22.605Z,38.17
2023-03-18T00:03:50.511Z,38.11
2023-03-18T00:06:21.034Z,38.08
2023-03-18T00:08:50.708Z,38.16
2023-03-18T00:11:21.398Z,38.08
2023-03-18T00:13:49.456Z,38.18
2023-03-18T00:16:17.460Z,38.22
2023-03-18T00:18:45.369Z,38.22
2023-03-18T00:21:13.445Z,38.20
2023-03-18T00:23:41.365Z,38.25
2023-03-18T00:26:09.785Z,38.35
2023-03-18T00:28:38.274Z,38.32
2023-03-18T00:31:09.162Z,38.25
2023-03-18T00:33:40.118Z,38.29
2023-03-18T00:36:10.338Z,38.32
2023-03-18T00:38:38.410Z,38.24
2023-03-18T00:41:12.425Z,38.30
2023-03-18T00:43:47.085Z,38.21
2023-03-18T00:46:17.879Z,38.20
2023-03-18T00:48:46.982Z,38.24
2023-03-18T00:51:17.447Z,38.28
2023-03-18T00:53:48.567Z,38.27
2023-03-18T00:56:18.905Z,38.43
2023-03-18T00:58:47.430Z,38.44
2023-03-18T01:01:16.283Z,38.41
2023-03-18T01:03:44.805Z,38.48
2023-03-18T01:06:22.963Z,38.64
2023-03-18T01:08:51.734Z,38.65
2023-03-18T01:11:19.627Z,38.67
2023-03-18T01:13:49.649Z,38.79
2023-03-18T01:16:17.872Z,38.78
2023-03-18T01:18:46.737Z,38.75
2023-03-18T01:21:15.377Z,38.79
2023-03-18T01:23:48.384Z,38.70
2023-03-18T01:26:16.903Z,38.82
2023-03-18T01:28:45.661Z,38.87
2023-03-18T01:31:15.353Z,38.94
2023-03-18T01:33:43.868Z,38.91
2023-03-18T01:36:11.994Z,38.90
2023-03-18T01:38:41.002Z,38.95
2023-03-18T01:41:14.619Z,39.04
2023-03-18T01:43:43.289Z,39.05
2023-03-18T01:46:45.607Z,38.99
2023-03-18T01:49:25.930Z,39.07
2023-03-18T01:52:00.350Z,39.16
2023-03-18T01:54:32.075Z,39.25
2023-03-18T01:57:00.668Z,39.27
2023-03-18T01:59:31.684Z,39.35
2023-03-18T02:02:06.633Z,39.27
2023-03-18T02:04:47.618Z,39.37
2023-03-18T02:07:22.068Z,39.52
2023-03-18T02:09:52.230Z,39.48
2023-03-18T02:12:26.620Z,39.49
2023-03-18T02:14:57.936Z,39.54
2023-03-18T02:17:30.237Z,39.50
2023-03-18T02:20:26.504Z,39.48
2023-03-18T02:23:01.036Z,39.61
2023-03-18T02:25:44.316Z,39.60
2023-03-18T02:28:20.223Z,39.51
2023-03-18T02:30:53.504Z,39.61
2023-03-18T02:33:24.288Z,39.64
2023-03-18T02:35:56.738Z,39.66
2023-03-18T02:38:24.678Z,39.71
2023-03-18T02:40:53.430Z,39.66
2023-03-18T02:43:28.808Z,39.72
2023-03-18T02:46:17.628Z,39.72
2023-03-18T02:48:48.970Z,39.67
2023-03-18T02:51:18.904Z,39.71
2023-03-18T02:53:48.321Z,39.75
2023-03-18T02:56:16.910Z,39.78
2023-03-18T02:58:45.988Z,39.72
2023-03-18T03:01:15.315Z,39.77
2023-03-18T03:03:44.010Z,39.69
2023-03-18T03:06:12.587Z,39.67
2023-03-18T03:08:41.314Z,39.82
2023-03-18T03:11:10.242Z,39.88
2023-03-18T03:13:40.987Z,39.83
2023-03-18T03:16:10.690Z,39.76
2023-03-18T03:18:38.706Z,39.88
2023-03-18T03:21:06.712Z,39.83
2023-03-18T03:23:35.647Z,39.78
2023-03-18T03:26:04.648Z,39.71
2023-03-18T03:28:32.847Z,39.71
2023-03-18T03:31:01.284Z,39.85
2023-03-18T03:33:29.308Z,39.90
2023-03-18T03:35:58.269Z,39.99
2023-03-18T03:38:26.720Z,39.84
2023-03-18T03:40:56.067Z,39.89
2023-03-18T03:43:23.933Z,40.02
2023-03-18T03:45:51.787Z,40.05
2023-03-18T03:48:19.618Z,40.13
2023-03-18T03:50:47.725Z,40.18
2023-03-18T03:53:15.791Z,40.24
2023-03-18T03:55:44.427Z,40.26
2023-03-18T03:58:12.442Z,40.29
2023-03-18T04:00:40.940Z,40.33
2023-03-18T04:03:08.902Z,40.40
2023-03-18T04:05:37.337Z,40.42
2023-03-18T04:08:06.558Z,40.49
2023-03-18T04:10:38.513Z,40.50
2023-03-18T04:13:08.863Z,40.47
2023-03-18T04:15:36.865Z,40.54
2023-03-18T04:18:08.978Z,40.59
2023-03-18T04:20:38.824Z,40.61
2023-03-18T04:23:14.234Z,40.66
2023-03-18T04:25:42.829Z,40.49
2023-03-18T04:28:10.918Z,40.51
2023-03-18T04:30:38.974Z,40.55
2023-03-18T04:33:11.120Z,40.56
2023-03-18T04:35:43.635Z,40.42
2023-03-18T04:38:12.251Z,40.43
2023-03-18T04:40:40.358Z,40.42
2023-03-18T04:43:10.035Z,40.57
2023-03-18T04:45:38.067Z,40.47
2023-03-18T04:48:06.503Z,40.56
2023-03-18T04:50:37.718Z,40.58
2023-03-18T04:53:06.520Z,40.61
2023-03-18T04:55:35.219Z,40.54
2023-03-18T04:58:04.640Z,40.62
2023-03-18T05:00:35.603Z,40.49
2023-03-18T05:03:14.272Z,40.49
2023-03-18T05:05:42.749Z,40.44
2023-03-18T05:08:11.170Z,40.47
2023-03-18T05:10:40.281Z,40.49
2023-03-18T05:13:09.546Z,40.63
2023-03-18T05:15:37.988Z,40.53
2023-03-18T05:18:05.848Z,40.47
2023-03-18T05:20:34.416Z,40.44
2023-03-18T05:23:03.118Z,40.36
2023-03-18T05:25:51.490Z,40.42
2023-03-18T05:28:21.441Z,40.54
2023-03-18T05:31:08.761Z,40.46
2023-03-18T05:33:42.321Z,40.49
2023-03-18T05:36:11.234Z,40.56
2023-03-18T05:38:44.943Z,40.63
2023-03-18T05:41:12.986Z,40.56
2023-03-18T05:43:42.762Z,40.53
2023-03-18T05:46:11.864Z,40.48
2023-03-18T05:48:48.748Z,40.51
2023-03-18T05:51:17.215Z,40.55
2023-03-18T05:53:46.853Z,40.61
2023-03-18T05:56:21.959Z,40.45
2023-03-18T05:58:52.453Z,40.41
2023-03-18T06:01:26.208Z,40.28
2023-03-18T06:03:55.196Z,40.30
2023-03-18T06:06:23.549Z,40.23
2023-03-18T06:08:52.756Z,40.19
2023-03-18T06:11:20.807Z,40.20
2023-03-18T06:13:50.842Z,40.17
2023-03-18T06:16:19.354Z,40.30
2023-03-18T06:18:47.374Z,40.14
2023-03-18T06:21:17.859Z,40.26
2023-03-18T06:23:45.740Z,40.18
2023-03-18T06:26:13.856Z,40.06
2023-03-18T06:28:47.386Z,40.13
2023-03-18T06:31:17.173Z,40.09
2023-03-18T06:33:46.351Z,40.06
2023-03-18T06:36:16.830Z,39.99
2023-03-18T06:38:50.839Z,39.91
2023-03-18T06:41:19.316Z,39.97
2023-03-18T06:44:04.200Z,39.90
2023-03-18T06:46:32.637Z,39.83
2023-03-18T06:49:01.950Z,39.76
2023-03-18T06:51:33.705Z,39.64
2023-03-18T06:54:02.025Z,39.59
2023-03-18T06:56:33.941Z,39.62
2023-03-18T06:59:11.055Z,39.69
2023-03-18T07:01:39.752Z,39.57
2023-03-18T07:04:08.302Z,39.53
2023-03-18T07:06:37.147Z,39.48
2023-03-18T07:09:05.048Z,39.36
2023-03-18T07:11:33.004Z,39.33
2023-03-18T07:14:05.943Z,39.44
2023-03-18T07:16:35.747Z,39.30
2023-03-18T07:19:04.214Z,39.17
2023-03-18T07:21:33.741Z,39.26
2023-03-18T07:24:03.900Z,39.16
2023-03-18T07:26:31.921Z,39.15
2023-03-18T07:28:59.876Z,39.00
2023-03-18T07:31:28.420Z,39.01
2023-03-18T07:33:57.475Z,39.03
2023-03-18T07:36:25.690Z,38.86
2023-03-18T07:38:54.011Z,38.99
2023-03-18T07:41:22.371Z,38.82
2023-03-18T07:43:50.211Z,38.81
2023-03-18T07:46:18.371Z,38.82
2023-03-18T07:48:46.659Z,38.94
2023-03-18T07:51:15.653Z,38.76
2023-03-18T07:53:44.751Z,38.79
2023-03-18T07:56:12.664Z,38.82
2023-03-18T07:58:41.049Z,38.79
2023-03-18T08:01:09.476Z,38.84
2023-03-18T08:03:37.492Z,38.68
2023-03-18T08:06:05.620Z,38.57
2023-03-18T08:08:33.798Z,38.52
2023-03-18T08:11:02.451Z,38.54
2023-03-18T08:13:30.378Z,38.53
2023-03-18T08:15:58.784Z,38.57
2023-03-18T08:18:27.121Z,38.42
2023-03-18T08:20:55.460Z,38.36
2023-03-18T08:23:24.271Z,38.28
2023-03-18T08:25:52.223Z,38.29
2023-03-18T08:28:20.159Z,38.36
2023-03-18T08:30:48.770Z,38.23
2023-03-18T08:33:16.957Z,38.20
2023-03-18T08:35:44.862Z,38.54
2023-03-18T08:38:12.891Z,38.73
2023-03-18T08:40:41.551Z,39.09
2023-03-18T08:43:10.028Z,38.59
2023-03-18T08:45:38.213Z,38.51
2023-03-18T08:48:07.227Z,40.56
2023-03-18T08:50:36.636Z,41.55
2023-03-18T08:53:04.864Z,40.67
2023-03-18T08:55:37.324Z,39.85
2023-03-18T08:58:08.337Z,39.72
2023-03-18T09:00:39.426Z,39.62
2023-03-18T09:03:07.686Z,39.16
2023-03-18T09:05:35.939Z,39.12
2023-03-18T09:08:03.959Z,38.52
2023-03-18T09:10:31.845Z,38.24
2023-03-18T09:13:01.039Z,38.06
2023-03-18T09:15:29.011Z,37.80
2023-03-18T09:18:10.405Z,37.60
2023-03-18T09:20:40.383Z,37.52
2023-03-18T09:23:10.284Z,37.45
2023-03-18T09:25:39.616Z,37.51
2023-03-18T09:28:07.710Z,37.45
2023-03-18T09:30:36.290Z,37.51
2023-03-18T09:33:06.936Z,37.47
2023-03-18T09:35:36.638Z,37.39
2023-03-18T09:38:04.817Z,37.38
2023-03-18T09:40:42.325Z,37.50
2023-03-18T09:43:13.228Z,37.41
2023-03-18T09:45:57.159Z,37.16
2023-03-18T09:48:46.748Z,37.09
2023-03-18T09:51:28.335Z,37.18
2023-03-18T09:54:02.790Z,36.97
2023-03-18T09:56:34.877Z,37.03
2023-03-18T09:59:24.208Z,37.19
2023-03-18T10:01:57.508Z,37.15
2023-03-18T10:04:41.339Z,37.06
2023-03-18T10:07:16.702Z,37.02
2023-03-18T10:09:53.931Z,36.90
2023-03-18T10:12:25.808Z,36.94
2023-03-18T10:15:16.332Z,36.82
2023-03-18T10:18:05.197Z,36.62
2023-03-18T10:20:56.185Z,36.55
2023-03-18T10:23:42.091Z,36.35
2023-03-18T10:26:50.308Z,36.41
2023-03-18T10:29:43.072Z,36.48
2023-03-18T10:32:33.256Z,36.48
2023-03-18T10:35:31.298Z,36.29
2023-03-18T10:38:07.767Z,36.30
2023-03-18T10:40:41.423Z,36.15
2023-03-18T10:43:17.165Z,36.14
2023-03-18T10:45:48.392Z,36.35
2023-03-18T10:48:20.994Z,36.34
2023-03-18T10:51:12.416Z,36.18
2023-03-18T10:53:46.762Z,36.08
2023-03-18T10:56:15.603Z,36.21
2023-03-18T10:58:43.814Z,36.09
2023-03-18T11:01:18.793Z,35.98
2023-03-18T11:03:54.599Z,36.02
2023-03-18T11:06:28.507Z,36.01
2023-03-18T11:09:08.532Z,35.88
2023-03-18T11:11:41.253Z,35.87
2023-03-18T11:14:17.192Z,36.01
2023-03-18T11:17:05.679Z,35.90
2023-03-18T11:19:39.602Z,35.91
2023-03-18T11:22:10.589Z,36.01
2023-03-18T11:24:42.277Z,35.86
2023-03-18T11:27:16.740Z,35.74
2023-03-18T11:29:50.603Z,35.76
2023-03-18T11:32:29.306Z,35.63
2023-03-18T11:34:59.089Z,35.65
2023-03-18T11:37:32.896Z,35.73
2023-03-18T11:40:42.488Z,35.77
2023-03-18T11:43:19.544Z,35.71
2023-03-18T11:45:57.804Z,35.64
2023-03-18T11:48:44.236Z,35.57
2023-03-18T11:51:16.389Z,35.33
2023-03-18T11:53:49.596Z,35.42
2023-03-18T11:56:41.532Z,35.39
2023-03-18T11:59:21.662Z,35.43
2023-03-18T12:02:34.597Z,35.28
2023-03-18T12:05:28.903Z,35.16
2023-03-18T12:08:15.373Z,35.16
2023-03-18T12:10:53.512Z,35.21
2023-03-18T12:13:36.951Z,35.23
2023-03-18T12:16:17.557Z,35.28
2023-03-18T12:19:00.729Z,35.36
2023-03-18T12:22:06.010Z,35.23
2023-03-18T12:24:52.630Z,35.37
2023-03-18T12:27:29.726Z,34.98
2023-03-18T12:29:57.588Z,35.04
2023-03-18T12:32:40.400Z,35.13
2023-03-18T12:35:30.064Z,35.14
2023-03-18T12:38:25.863Z,35.64
2023-03-18T12:41:06.707Z,36.02
2023-03-18T12:43:55.701Z,35.69
2023-03-18T12:46:27.418Z,36.46
2023-03-18T12:49:01.582Z,36.08
2023-03-18T12:52:05.438Z,36.15
2023-03-18T12:54:43.871Z,35.70
2023-03-18T12:57:20.659Z,35.48
2023-03-18T13:00:12.654Z,35.37
2023-03-18T13:03:06.890Z,35.10
2023-03-18T13:05:43.721Z,35.09
2023-03-18T13:09:10.704Z,35.07
2023-03-18T13:11:53.795Z,34.85
2023-03-18T13:14:44.876Z,34.81
2023-03-18T13:17:40.020Z,34.95
2023-03-18T13:20:22.935Z,34.82
2023-03-18T13:22:57.729Z,34.62
2023-03-18T13:25:41.248Z,34.83
2023-03-18T13:28:25.443Z,34.96
2023-03-18T13:31:01.628Z,34.82
2023-03-18T13:33:54.762Z,34.72
2023-03-18T13:36:56.796Z,34.55
2023-03-18T13:39:49.045Z,34.53
2023-03-18T13:42:40.524Z,34.66
2023-03-18T13:45:24.338Z,34.57
2023-03-18T13:47:59.449Z,34.47
2023-03-18T13:50:34.632Z,34.23
2023-03-18T13:53:04.661Z,34.45
2023-03-18T13:55:47.423Z,34.60
2023-03-18T13:58:23.085Z,34.54
2023-03-18T14:00:57.041Z,34.35
2023-03-18T14:03:52.035Z,34.39
2023-03-18T14:06:42.790Z,34.39
2023-03-18T14:09:33.053Z,34.39
2023-03-18T14:12:24.940Z,34.26
2023-03-18T14:14:56.859Z,34.43
2023-03-18T14:17:37.060Z,34.41
2023-03-18T14:20:17.711Z,34.39
2023-03-18T14:22:47.951Z,34.46
2023-03-18T14:25:22.661Z,34.46
2023-03-18T14:28:11.646Z,34.35
2023-03-18T14:30:41.985Z,34.31
2023-03-18T14:33:13.031Z,34.43
2023-03-18T14:35:58.713Z,34.57
2023-03-18T14:38:29.545Z,34.41
2023-03-18T14:41:00.330Z,34.56
2023-03-18T14:43:36.660Z,34.52
2023-03-18T14:46:09.213Z,34.51
2023-03-18T14:48:37.043Z,34.45
2023-03-18T14:51:17.156Z,34.42
2023-03-18T14:53:53.403Z,34.40
2023-03-18T14:56:29.428Z,34.42
2023-03-18T14:58:57.439Z,34.33
2023-03-18T15:01:36.653Z,34.45
2023-03-18T15:04:07.240Z,34.49
2023-03-18T15:06:35.406Z,34.52
2023-03-18T15:09:09.675Z,34.57
2023-03-18T15:11:39.827Z,34.62
2023-03-18T15:14:24.462Z,34.54
2023-03-18T15:16:54.060Z,34.43
2023-03-18T15:19:23.200Z,34.54
2023-03-18T15:21:51.908Z,34.46
2023-03-18T15:24:23.826Z,34.56
2023-03-18T15:27:14.777Z,34.72
2023-03-18T15:30:25.764Z,34.78
2023-03-18T15:33:06.938Z,34.88
2023-03-18T15:35:36.199Z,34.88
2023-03-18T15:38:09.286Z,34.85
2023-03-18T15:40:52.646Z,35.08
2023-03-18T15:43:36.194Z,35.15
2023-03-18T15:46:15.462Z,34.96
2023-03-18T15:48:54.138Z,35.04
2023-03-18T15:51:40.299Z,35.09
2023-03-18T15:54:21.419Z,35.10
2023-03-18T15:56:50.259Z,35.20
2023-03-18T15:59:23.539Z,35.25
2023-03-18T16:01:52.675Z,35.30
2023-03-18T16:04:21.701Z,35.26
2023-03-18T16:06:50.539Z,35.22
2023-03-18T16:09:21.311Z,35.41
2023-03-18T16:11:55.557Z,35.38
2023-03-18T16:14:28.668Z,35.26
2023-03-18T16:16:56.638Z,35.42
2023-03-18T16:19:28.038Z,35.52
2023-03-18T16:21:58.341Z,35.59
2023-03-18T16:24:26.510Z,35.66
2023-03-18T16:26:55.699Z,35.63
2023-03-18T16:29:29.916Z,35.66
2023-03-18T16:31:58.540Z,35.86
2023-03-18T16:34:27.763Z,35.81
2023-03-18T16:36:56.081Z,35.87
2023-03-18T16:39:34.262Z,36.01
2023-03-18T16:42:04.350Z,35.95
2023-03-18T16:44:34.461Z,36.06
2023-03-18T16:47:02.477Z,36.23
2023-03-18T16:49:32.016Z,36.30
2023-03-18T16:52:01.850Z,36.37
2023-03-18T16:54:32.966Z,36.33
2023-03-18T16:57:04.346Z,36.42
2023-03-18T16:59:35.344Z,36.45
2023-03-18T17:02:04.279Z,36.48
2023-03-18T17:04:34.331Z,36.57
2023-03-18T17:07:04.588Z,36.55
2023-03-18T17:09:32.472Z,36.56
2023-03-18T17:12:06.368Z,36.59
2023-03-18T17:14:40.007Z,36.66
2023-03-18T17:17:12.641Z,36.76
2023-03-18T17:19:41.312Z,36.83
2023-03-18T17:22:20.894Z,36.84
2023-03-18T17:24:49.703Z,37.00
2023-03-18T17:27:20.100Z,37.02
2023-03-18T17:29:48.163Z,37.13
2023-03-18T17:32:19.347Z,37.16
2023-03-18T17:34:49.832Z,37.30
2023-03-18T17:37:18.852Z,37.28
2023-03-18T17:39:47.368Z,37.40
2023-03-18T17:42:31.905Z,37.46
2023-03-18T17:45:06.397Z,37.53
2023-03-18T17:47:34.639Z,37.62
2023-03-18T17:50:04.820Z,37.64
2023-03-18T17:52:34.043Z,37.74
2023-03-18T17:55:02.038Z,37.85
2023-03-18T17:57:30.297Z,38.00
2023-03-18T17:59:58.462Z,38.11
2023-03-18T18:02:26.453Z,38.24
2023-03-18T18:04:54.324Z,38.28
2023-03-18T18:07:23.763Z,38.30
2023-03-18T18:09:52.205Z,38.37
2023-03-18T18:12:23.056Z,38.48
2023-03-18T18:14:51.476Z,38.42
2023-03-18T18:17:19.367Z,38.56
2023-03-18T18:19:47.479Z,38.65
2023-03-18T18:22:22.310Z,38.69
2023-03-18T18:24:52.228Z,38.79
2023-03-18T18:27:20.171Z,38.84
2023-03-18T18:29:48.170Z,38.88
2023-03-18T18:32:16.413Z,38.99
2023-03-18T18:34:45.135Z,39.05
2023-03-18T18:37:13.498Z,39.13
2023-03-18T18:39:42.550Z,39.09
2023-03-18T18:42:12.345Z,39.18
2023-03-18T18:44:40.275Z,39.27
2023-03-18T18:47:17.625Z,39.33
2023-03-18T18:49:46.908Z,39.46
2023-03-18T18:52:14.921Z,39.41
2023-03-18T18:54:43.340Z,39.49
2023-03-18T18:57:26.711Z,39.55
2023-03-18T18:59:55.070Z,39.53
2023-03-18T19:02:30.980Z,39.72
2023-03-18T19:04:59.998Z,39.75
2023-03-18T19:07:28.222Z,39.68
2023-03-18T19:09:56.564Z,39.80
2023-03-18T19:12:24.403Z,39.82
2023-03-18T19:14:52.527Z,39.89
2023-03-18T19:17:22.517Z,39.89
2023-03-18T19:19:52.667Z,39.94
2023-03-18T19:22:25.459Z,40.01
2023-03-18T19:24:53.684Z,39.97
2023-03-18T19:27:28.028Z,40.00
2023-03-18T19:29:59.282Z,40.00
2023-03-18T19:32:27.973Z,40.09
2023-03-18T19:34:56.000Z,40.01
2023-03-18T19:37:31.064Z,40.13
2023-03-18T19:40:00.676Z,40.27
2023-03-18T19:42:28.575Z,40.38
2023-03-18T19:44:56.712Z,40.31
2023-03-18T19:47:28.271Z,40.39
2023-03-18T19:49:56.112Z,40.38
2023-03-18T19:52:26.434Z,40.47
2023-03-18T19:54:55.154Z,40.49
2023-03-18T19:57:31.349Z,40.58
2023-03-18T20:00:04.385Z,40.75
2023-03-18T20:02:34.877Z,40.66
2023-03-18T20:05:15.339Z,40.70
2023-03-18T20:07:43.280Z,40.83
2023-03-18T20:10:12.533Z,40.82
2023-03-18T20:12:43.479Z,40.77
2023-03-18T20:15:20.411Z,40.93
2023-03-18T20:17:50.643Z,40.96
2023-03-18T20:20:24.444Z,41.04
2023-03-18T20:23:13.719Z,40.98
2023-03-18T20:25:44.711Z,40.94
2023-03-18T20:28:17.394Z,41.01
2023-03-18T20:30:50.327Z,41.10
2023-03-18T20:33:22.208Z,41.13
2023-03-18T20:35:53.614Z,41.15
2023-03-18T20:38:29.662Z,41.23
2023-03-18T20:40:57.895Z,41.27
2023-03-18T20:43:28.260Z,41.26
2023-03-18T20:45:59.787Z,41.34
2023-03-18T20:48:28.206Z,41.18
2023-03-18T20:50:56.516Z,41.18
2023-03-18T20:53:28.214Z,41.23
2023-03-18T20:55:56.568Z,41.31
2023-03-18T20:58:26.396Z,41.24
2023-03-18T21:00:55.007Z,41.22
2023-03-18T21:03:29.368Z,41.36
2023-03-18T21:05:59.067Z,41.32
2023-03-18T21:08:28.456Z,41.37
2023-03-18T21:11:00.356Z,41.33
2023-03-18T21:13:33.686Z,41.40
2023-03-18T21:16:03.701Z,41.36
2023-03-18T21:18:32.199Z,41.31
2023-03-18T21:21:01.383Z,41.31
2023-03-18T21:23:34.431Z,41.34
2023-03-18T21:26:03.626Z,41.28
2023-03-18T21:28:31.700Z,41.33
2023-03-18T21:31:02.590Z,41.44
2023-03-18T21:33:33.256Z,41.47
2023-03-18T21:36:02.208Z,41.51
2023-03-18T21:38:31.947Z,41.46
2023-03-18T21:41:01.995Z,41.40
2023-03-18T21:43:34.345Z,41.47
2023-03-18T21:46:04.879Z,41.53
2023-03-18T21:48:32.887Z,41.54
2023-03-18T21:51:00.850Z,41.37
2023-03-18T21:53:28.852Z,41.40
2023-03-18T21:55:56.877Z,41.41
2023-03-18T21:58:26.724Z,41.31
2023-03-18T22:00:57.195Z,41.44
2023-03-18T22:03:27.928Z,41.38
2023-03-18T22:05:56.515Z,41.35
2023-03-18T22:08:25.379Z,41.39
2023-03-18T22:10:53.405Z,41.32
2023-03-18T22:13:26.534Z,41.37
2023-03-18T22:15:56.670Z,41.35
2023-03-18T22:18:24.710Z,41.40
2023-03-18T22:20:52.650Z,41.33
2023-03-18T22:23:27.409Z,41.42
2023-03-18T22:25:57.381Z,41.46
2023-03-18T22:28:28.044Z,41.48
2023-03-18T22:30:56.179Z,41.46
2023-03-18T22:33:27.590Z,41.47
2023-03-18T22:35:55.968Z,41.40
2023-03-18T22:38:25.237Z,41.43
2023-03-18T22:40:56.274Z,41.48
2023-03-18T22:43:37.759Z,41.41
2023-03-18T22:46:08.124Z,41.35
2023-03-18T22:48:36.064Z,41.43
2023-03-18T22:51:05.458Z,41.37
2023-03-18T22:53:41.165Z,41.34
2023-03-18T22:56:12.001Z,41.35
2023-03-18T22:58:39.892Z,41.44
2023-03-18T23:01:09.404Z,41.43
2023-03-18T23:03:40.522Z,41.39
2023-03-18T23:06:14.786Z,41.44
2023-03-18T23:08:43.152Z,41.42
2023-03-18T23:11:12.165Z,41.42
2023-03-18T23:13:43.069Z,41.34
2023-03-18T23:16:16.565Z,41.35
2023-03-18T23:18:44.552Z,41.34
2023-03-18T23:21:21.699Z,41.51
2023-03-18T23:23:50.087Z,41.55
2023-03-18T23:26:18.348Z,41.45
2023-03-18T23:28:46.655Z,41.41
2023-03-18T23:31:15.744Z,41.40
2023-03-18T23:33:44.152Z,41.35
2023-03-18T23:36:12.430Z,41.36
2023-03-18T23:38:40.700Z,41.35
2023-03-18T23:41:08.636Z,41.47
2023-03-18T23:43:36.775Z,41.43
2023-03-18T23:46:04.786Z,41.33
2023-03-18T23:48:32.715Z,41.29
2023-03-18T23:51:00.791Z,41.30
2023-03-18T23:53:28.831Z,41.24
2023-03-18T23:55:56.747Z,41.22
2023-03-18T23:58:24.745Z,41.33
